createdAt,value
2022-12-01T00:00:15.720Z,60.45
2022-12-01T00:02:44.966Z,60.77
2022-12-01T00:05:12.736Z,60.30
2022-12-01T00:07:40.497Z,60.28
2022-12-01T00:10:28.392Z,60.17
2022-12-01T00:12:56.383Z,60.64
2022-12-01T00:15:24.312Z,60.28
2022-12-01T00:17:53.433Z,60.24
2022-12-01T00:20:21.117Z,60.62
2022-12-01T00:22:49.270Z,60.22
2022-12-01T00:25:18.354Z,60.75
2022-12-01T00:27:48.903Z,60.62
2022-12-01T00:30:16.722Z,61.08
2022-12-01T00:32:44.427Z,60.76
2022-12-01T00:35:13.598Z,60.17
2022-12-01T00:37:41.289Z,60.02
2022-12-01T00:40:09.973Z,60.16
2022-12-01T00:42:37.634Z,59.92
2022-12-01T00:45:06.213Z,60.06
2022-12-01T00:47:33.993Z,60.13
2022-12-01T00:50:01.715Z,60.42
2022-12-01T00:52:30.811Z,59.89
2022-12-01T00:54:58.580Z,60.61
2022-12-01T00:57:26.465Z,59.95
2022-12-01T00:59:54.298Z,60.73
2022-12-01T01:02:22.042Z,60.40
2022-12-01T01:04:49.746Z,60.24
2022-12-01T01:07:17.858Z,60.37
2022-12-01T01:09:47.849Z,60.57
2022-12-01T01:14:50.279Z,60.35
2022-12-01T01:17:17.981Z,60.47
2022-12-01T01:19:46.109Z,61.29
2022-12-01T01:22:13.943Z,60.95
2022-12-01T01:24:41.818Z,61.02
2022-12-01T01:27:10.861Z,60.64
2022-12-01T01:29:39.842Z,60.85
2022-12-01T01:32:07.445Z,60.42
2022-12-01T01:34:35.177Z,61.03
2022-12-01T01:37:02.848Z,61.19
2022-12-01T01:39:30.922Z,60.96
2022-12-01T01:41:58.551Z,60.60
2022-12-01T01:44:50.289Z,61.10
2022-12-01T01:47:18.656Z,60.60
2022-12-01T01:49:47.048Z,61.44
2022-12-01T01:52:14.892Z,61.35
2022-12-01T01:54:47.416Z,61.82
2022-12-01T01:57:16.349Z,60.88
2022-12-01T01:59:47.804Z,61.15
2022-12-01T02:02:17.174Z,61.38
2022-12-01T02:04:46.874Z,61.59
2022-12-01T02:07:16.605Z,61.98
2022-12-01T02:09:44.385Z,61.75
2022-12-01T02:12:17.912Z,61.80
2022-12-01T02:14:56.125Z,61.73
2022-12-01T02:17:29.856Z,61.55
2022-12-01T02:20:37.282Z,60.92
2022-12-01T02:23:24.925Z,62.42
2022-12-01T02:25:57.881Z,62.31
2022-12-01T02:28:53.272Z,62.28
2022-12-01T02:31:23.694Z,62.16
2022-12-01T02:33:55.165Z,61.93
2022-12-01T02:36:23.710Z,62.37
2022-12-01T02:38:53.408Z,62.19
2022-12-01T02:41:23.194Z,61.10
2022-12-01T02:43:54.223Z,62.53
2022-12-01T02:46:24.862Z,61.95
2022-12-01T02:48:55.199Z,61.56
2022-12-01T02:51:25.006Z,62.02
2022-12-01T02:53:52.926Z,61.96
2022-12-01T02:56:21.832Z,61.11
2022-12-01T02:58:49.657Z,61.75
2022-12-01T03:01:29.024Z,61.58
2022-12-01T03:04:14.743Z,61.92
2022-12-01T03:06:46.016Z,61.29
2022-12-01T03:09:18.911Z,61.11
2022-12-01T03:11:49.483Z,61.70
2022-12-01T03:14:21.698Z,61.63
2022-12-01T03:16:53.003Z,61.38
2022-12-01T03:19:23.242Z,61.13
2022-12-01T03:21:53.082Z,60.89
2022-12-01T03:24:21.635Z,61.38
2022-12-01T03:26:51.789Z,61.50
2022-12-01T03:29:21.476Z,61.71
2022-12-01T03:31:50.356Z,61.33
2022-12-01T03:34:23.086Z,61.19
2022-12-01T03:36:52.313Z,61.10
2022-12-01T03:39:22.075Z,62.14
2022-12-01T03:41:52.911Z,60.89
2022-12-01T03:44:22.079Z,60.91
2022-12-01T03:46:51.200Z,61.27
2022-12-01T03:49:20.261Z,61.43
2022-12-01T03:51:50.997Z,61.02
2022-12-01T03:54:20.378Z,61.41
2022-12-01T03:56:50.091Z,60.73
2022-12-01T03:59:17.738Z,60.77
2022-12-01T04:01:45.946Z,61.70
2022-12-01T04:04:14.529Z,61.16
2022-12-01T04:06:46.113Z,60.63
2022-12-01T04:09:13.795Z,61.36
2022-12-01T04:11:58.797Z,61.01
2022-12-01T04:14:26.589Z,61.77
2022-12-01T04:16:54.246Z,61.03
2022-12-01T04:19:22.024Z,60.68
2022-12-01T04:21:51.066Z,60.81
2022-12-01T04:24:19.795Z,61.42
2022-12-01T04:26:47.414Z,60.63
2022-12-01T04:29:15.210Z,60.94
2022-12-01T04:31:43.018Z,61.03
2022-12-01T04:34:11.066Z,61.59
2022-12-01T04:36:38.793Z,61.22
2022-12-01T04:39:07.874Z,61.00
2022-12-01T04:41:35.590Z,60.82
2022-12-01T04:44:10.425Z,60.63
2022-12-01T04:46:38.143Z,60.40
2022-12-01T04:49:06.155Z,60.32
2022-12-01T04:51:33.851Z,60.75
2022-12-01T04:54:09.752Z,60.83
2022-12-01T04:56:37.582Z,61.32
2022-12-01T04:59:05.337Z,61.01
2022-12-01T05:01:33.505Z,60.88
2022-12-01T05:04:02.380Z,61.05
2022-12-01T05:06:30.370Z,61.27
2022-12-01T05:08:58.989Z,60.94
2022-12-01T05:11:29.079Z,60.87
2022-12-01T05:13:57.174Z,62.20
2022-12-01T05:16:26.312Z,61.29
2022-12-01T05:19:15.501Z,61.87
2022-12-01T05:21:42.989Z,61.64
2022-12-01T05:24:10.843Z,62.22
2022-12-01T05:26:40.246Z,61.59
2022-12-01T05:29:08.116Z,61.05
2022-12-01T05:31:36.161Z,61.06
2022-12-01T05:34:03.987Z,61.71
2022-12-01T05:36:31.852Z,61.33
2022-12-01T05:38:59.490Z,62.63
2022-12-01T05:41:28.302Z,62.06
2022-12-01T05:43:57.334Z,61.50
2022-12-01T05:46:25.201Z,61.61
2022-12-01T05:48:53.169Z,61.58
2022-12-01T05:51:21.111Z,61.19
2022-12-01T05:53:48.749Z,61.67
2022-12-01T05:56:16.896Z,61.44
2022-12-01T05:58:44.667Z,61.88
2022-12-01T06:01:13.777Z,61.64
2022-12-01T06:03:43.032Z,62.42
2022-12-01T06:06:10.938Z,61.78
2022-12-01T06:08:40.845Z,61.54
2022-12-01T06:11:08.589Z,61.73
2022-12-01T06:13:36.251Z,62.09
2022-12-01T06:16:04.910Z,62.10
2022-12-01T06:18:36.175Z,62.46
2022-12-01T06:21:04.170Z,62.07
2022-12-01T06:23:31.909Z,61.89
2022-12-01T06:25:59.623Z,61.84
2022-12-01T06:28:27.241Z,61.65
2022-12-01T06:31:01.071Z,61.41
2022-12-01T06:33:31.455Z,61.98
2022-12-01T06:36:00.901Z,62.79
2022-12-01T06:38:31.256Z,62.23
2022-12-01T06:40:59.101Z,62.00
2022-12-01T06:43:26.773Z,61.64
2022-12-01T06:46:00.893Z,61.78
2022-12-01T06:48:29.529Z,61.25
2022-12-01T06:50:58.200Z,62.83
2022-12-01T06:53:28.432Z,61.96
2022-12-01T06:56:07.632Z,61.22
2022-12-01T06:58:35.666Z,61.07
2022-12-01T07:01:09.197Z,61.75
2022-12-01T07:03:36.937Z,61.25
2022-12-01T07:06:05.077Z,61.29
2022-12-01T07:08:34.358Z,62.10
2022-12-01T07:11:02.826Z,62.05
2022-12-01T07:13:33.816Z,62.46
2022-12-01T07:16:03.129Z,62.08
2022-12-01T07:18:31.257Z,62.02
2022-12-01T07:21:00.496Z,61.60
2022-12-01T07:23:28.447Z,60.87
2022-12-01T07:26:01.041Z,61.49
2022-12-01T07:28:29.212Z,61.31
2022-12-01T07:31:02.752Z,61.52
2022-12-01T07:33:30.830Z,61.38
2022-12-01T07:35:58.500Z,61.58
2022-12-01T07:38:26.247Z,61.33
2022-12-01T07:40:54.091Z,61.57
2022-12-01T07:43:23.435Z,61.81
2022-12-01T07:45:51.140Z,61.86
2022-12-01T07:48:18.823Z,61.51
2022-12-01T07:50:46.662Z,61.01
2022-12-01T07:53:14.390Z,61.36
2022-12-01T07:55:42.159Z,60.96
2022-12-01T07:58:10.111Z,61.62
2022-12-01T08:00:39.248Z,61.77
2022-12-01T08:03:06.940Z,60.98
2022-12-01T08:05:35.883Z,61.22
2022-12-01T08:08:03.680Z,60.96
2022-12-01T08:10:31.436Z,61.02
2022-12-01T08:12:59.069Z,62.00
2022-12-01T08:15:26.842Z,61.50
2022-12-01T08:17:55.860Z,61.42
2022-12-01T08:20:24.576Z,62.35
2022-12-01T08:22:52.168Z,61.56
2022-12-01T08:25:19.820Z,61.37
2022-12-01T08:27:47.575Z,61.59
2022-12-01T08:30:15.665Z,61.17
2022-12-01T08:32:43.281Z,61.05
2022-12-01T08:35:12.377Z,61.22
2022-12-01T08:37:40.005Z,60.13
2022-12-01T08:40:09.152Z,60.31
2022-12-01T08:42:36.785Z,60.89
2022-12-01T08:45:05.385Z,60.14
2022-12-01T08:47:33.135Z,60.80
2022-12-01T08:50:00.756Z,60.30
2022-12-01T08:52:33.811Z,61.22
2022-12-01T08:55:01.597Z,60.16
2022-12-01T08:57:30.008Z,60.66
2022-12-01T08:59:57.653Z,60.19
2022-12-01T09:02:25.580Z,59.80
2022-12-01T09:04:53.256Z,60.00
2022-12-01T09:07:26.063Z,60.60
2022-12-01T09:09:55.960Z,60.06
2022-12-01T09:12:23.807Z,60.38
2022-12-01T09:14:51.462Z,60.11
2022-12-01T09:17:20.191Z,60.35
2022-12-01T09:19:48.418Z,59.43
2022-12-01T09:22:16.230Z,60.49
2022-12-01T09:24:43.831Z,59.91
2022-12-01T09:27:13.191Z,60.02
2022-12-01T09:29:40.835Z,60.09
2022-12-01T09:32:08.432Z,60.24
2022-12-01T09:34:36.211Z,59.91
2022-12-01T09:37:04.034Z,60.25
2022-12-01T09:39:32.139Z,59.90
2022-12-01T09:42:08.462Z,59.32
2022-12-01T09:44:41.055Z,59.46
2022-12-01T09:47:13.332Z,60.40
2022-12-01T09:49:45.660Z,59.98
2022-12-01T09:52:14.683Z,59.77
2022-12-01T09:54:42.283Z,60.62
2022-12-01T09:57:15.657Z,60.54
2022-12-01T09:59:44.665Z,60.07
2022-12-01T10:02:27.549Z,60.02
2022-12-01T10:04:56.024Z,60.54
2022-12-01T10:07:25.734Z,59.47
2022-12-01T10:09:55.831Z,59.62
2022-12-01T10:12:27.682Z,59.21
2022-12-01T10:15:16.150Z,59.44
2022-12-01T10:17:49.849Z,59.37
2022-12-01T10:20:19.760Z,59.04
2022-12-01T10:23:14.847Z,58.11
2022-12-01T10:25:47.078Z,58.44
2022-12-01T10:28:28.187Z,59.00
2022-12-01T10:31:02.842Z,58.82
2022-12-01T10:33:33.790Z,57.83
2022-12-01T10:36:02.138Z,58.58
2022-12-01T10:38:30.735Z,58.40
2022-12-01T10:41:00.774Z,58.02
2022-12-01T10:43:38.389Z,57.54
2022-12-01T10:46:21.875Z,57.12
2022-12-01T10:48:53.806Z,58.12
2022-12-01T10:51:22.582Z,58.12
2022-12-01T10:53:50.357Z,58.12
2022-12-01T10:56:19.173Z,57.69
2022-12-01T10:58:48.498Z,57.96
2022-12-01T11:01:20.620Z,58.44
2022-12-01T11:03:51.422Z,57.00
2022-12-01T11:06:23.062Z,57.02
2022-12-01T11:08:53.132Z,56.95
2022-12-01T11:11:33.311Z,57.90
2022-12-01T11:14:02.790Z,56.49
2022-12-01T11:16:40.101Z,56.91
2022-12-01T11:19:23.586Z,57.15
2022-12-01T11:21:55.710Z,56.92
2022-12-01T11:24:34.025Z,56.79
2022-12-01T11:27:01.724Z,56.73
2022-12-01T11:29:32.841Z,57.45
2022-12-01T11:32:02.352Z,56.54
2022-12-01T11:34:31.239Z,56.79
2022-12-01T11:37:00.370Z,56.45
2022-12-01T11:39:29.156Z,57.28
2022-12-01T11:41:57.418Z,56.97
2022-12-01T11:47:23.178Z,56.72
2022-12-01T11:49:54.635Z,57.26
2022-12-01T11:52:34.721Z,56.35
2022-12-01T11:55:09.740Z,56.68
2022-12-01T11:57:38.951Z,57.40
2022-12-01T12:00:14.276Z,56.81
2022-12-01T12:02:45.593Z,56.54
2022-12-01T12:05:38.850Z,56.17
2022-12-01T12:08:10.075Z,56.28
2022-12-01T12:10:42.892Z,55.65
2022-12-01T12:13:48.788Z,55.99
2022-12-01T12:16:19.622Z,55.71
2022-12-01T12:18:59.467Z,54.98
2022-12-01T12:21:33.030Z,55.24
2022-12-01T12:24:09.458Z,55.03
2022-12-01T12:26:40.336Z,54.78
2022-12-01T12:29:22.514Z,54.32
2022-12-01T12:31:56.072Z,54.17
2022-12-01T12:34:34.087Z,54.26
2022-12-01T12:37:08.309Z,54.50
2022-12-01T12:40:00.250Z,54.19
2022-12-01T12:42:37.267Z,53.75
2022-12-01T12:45:07.691Z,53.71
2022-12-01T12:47:43.340Z,54.08
2022-12-01T12:50:19.058Z,53.83
2022-12-01T12:52:47.762Z,53.41
2022-12-01T12:55:19.805Z,53.85
2022-12-01T12:57:49.322Z,53.97
2022-12-01T13:00:18.819Z,53.71
2022-12-01T13:02:48.486Z,52.87
2022-12-01T13:05:19.915Z,53.32
2022-12-01T13:07:49.440Z,53.74
2022-12-01T13:10:23.894Z,53.39
2022-12-01T13:12:57.232Z,53.28
2022-12-01T13:15:25.076Z,54.10
2022-12-01T13:17:55.643Z,54.02
2022-12-01T13:20:27.592Z,53.55
2022-12-01T13:22:55.479Z,54.13
2022-12-01T13:25:26.086Z,53.73
2022-12-01T13:27:53.825Z,52.94
2022-12-01T13:30:23.315Z,53.64
2022-12-01T13:32:51.224Z,53.57
2022-12-01T13:35:23.555Z,53.78
2022-12-01T13:37:52.958Z,54.08
2022-12-01T13:40:22.038Z,53.48
2022-12-01T13:42:56.784Z,53.71
2022-12-01T13:45:24.594Z,54.45
2022-12-01T13:47:54.325Z,53.94
2022-12-01T13:51:01.825Z,53.56
2022-12-01T13:53:35.322Z,53.82
2022-12-01T13:56:25.941Z,54.58
2022-12-01T13:58:54.472Z,53.74
2022-12-01T14:01:47.516Z,54.30
2022-12-01T14:04:39.448Z,54.57
2022-12-01T14:07:35.722Z,54.51
2022-12-01T14:10:25.672Z,54.08
2022-12-01T14:12:54.106Z,54.82
2022-12-01T14:15:24.896Z,54.33
2022-12-01T14:18:00.230Z,53.66
2022-12-01T14:20:28.059Z,54.18
2022-12-01T14:23:05.012Z,54.58
2022-12-01T14:25:34.179Z,54.64
2022-12-01T14:28:03.021Z,54.58
2022-12-01T14:31:06.340Z,54.36
2022-12-01T14:34:01.338Z,53.85
2022-12-01T14:36:36.748Z,53.89
2022-12-01T14:39:06.497Z,54.62
2022-12-01T14:41:40.916Z,53.92
2022-12-01T14:44:11.270Z,54.43
2022-12-01T14:46:41.666Z,54.09
2022-12-01T14:49:13.100Z,53.60
2022-12-01T14:51:42.866Z,54.19
2022-12-01T14:54:11.443Z,54.69
2022-12-01T14:56:40.730Z,53.86
2022-12-01T14:59:16.099Z,54.40
2022-12-01T15:01:44.021Z,54.50
2022-12-01T15:04:11.993Z,54.30
2022-12-01T15:06:39.870Z,54.75
2022-12-01T15:12:00.728Z,55.10
2022-12-01T15:14:33.268Z,54.22
2022-12-01T15:17:02.525Z,54.18
2022-12-01T15:19:35.598Z,54.31
2022-12-01T15:22:08.071Z,54.42
2022-12-01T15:24:35.897Z,54.82
2022-12-01T15:27:06.060Z,55.01
2022-12-01T15:29:35.943Z,54.96
2022-12-01T15:32:05.989Z,54.77
2022-12-01T15:34:36.229Z,54.84
2022-12-01T15:37:04.889Z,55.23
2022-12-01T15:39:35.057Z,54.86
2022-12-01T15:42:03.028Z,54.62
2022-12-01T15:44:33.467Z,54.56
2022-12-01T15:47:01.238Z,54.39
2022-12-01T15:49:30.046Z,53.96
2022-12-01T15:52:08.873Z,54.75
2022-12-01T15:54:36.706Z,54.93
2022-12-01T15:57:04.544Z,54.55
2022-12-01T15:59:36.528Z,54.64
2022-12-01T16:02:29.068Z,55.46
2022-12-01T16:05:05.194Z,54.91
2022-12-01T16:08:10.865Z,54.09
2022-12-01T16:10:30.077Z,54.89
2022-12-01T16:13:31.018Z,54.88
2022-12-01T16:16:00.213Z,54.19
2022-12-01T16:18:30.802Z,55.01
2022-12-01T16:21:03.028Z,54.99
2022-12-01T16:23:30.827Z,54.95
2022-12-01T16:26:01.905Z,55.57
2022-12-01T16:28:35.398Z,54.69
2022-12-01T16:31:06.909Z,54.12
2022-12-01T16:33:37.524Z,54.45
2022-12-01T16:36:05.538Z,54.94
2022-12-01T16:38:33.293Z,54.54
2022-12-01T16:41:01.729Z,54.31
2022-12-01T16:43:29.986Z,54.49
2022-12-01T16:46:00.443Z,54.74
2022-12-01T16:48:29.775Z,54.61
2022-12-01T16:50:57.859Z,54.54
2022-12-01T16:53:25.576Z,54.29
2022-12-01T16:55:54.466Z,54.64
2022-12-01T16:58:22.485Z,54.98
2022-12-01T17:00:52.612Z,54.74
2022-12-01T17:03:21.064Z,53.98
2022-12-01T17:05:50.210Z,54.37
2022-12-01T17:08:18.093Z,54.21
2022-12-01T17:10:47.194Z,54.64
2022-12-01T17:13:15.009Z,54.47
2022-12-01T17:15:43.163Z,54.21
2022-12-01T17:18:11.067Z,55.40
2022-12-01T17:20:38.995Z,55.35
2022-12-01T17:23:08.093Z,54.24
2022-12-01T17:25:35.914Z,54.57
2022-12-01T17:30:34.978Z,54.83
2022-12-01T17:33:02.639Z,54.92
2022-12-01T17:35:30.333Z,54.22
2022-12-01T17:37:57.999Z,55.34
2022-12-01T17:40:27.003Z,54.98
2022-12-01T17:42:54.674Z,53.84
2022-12-01T17:45:22.295Z,54.55
2022-12-01T17:47:50.025Z,54.30
2022-12-01T17:50:17.988Z,54.41
2022-12-01T17:52:45.651Z,54.14
2022-12-01T17:55:13.365Z,54.79
2022-12-01T17:57:42.441Z,54.09
2022-12-01T18:00:11.438Z,54.49
2022-12-01T18:02:39.212Z,54.13
2022-12-01T18:05:07.723Z,54.24
2022-12-01T18:07:35.500Z,54.69
2022-12-01T18:10:03.146Z,54.06
2022-12-01T18:12:30.873Z,54.56
2022-12-01T18:14:59.847Z,53.98
2022-12-01T18:17:27.865Z,54.10
2022-12-01T18:19:57.116Z,54.19
2022-12-01T18:22:24.895Z,53.42
2022-12-01T18:24:52.811Z,54.26
2022-12-01T18:27:20.879Z,54.90
2022-12-01T18:30:00.304Z,53.64
2022-12-01T18:32:29.326Z,53.86
2022-12-01T18:34:57.109Z,54.35
2022-12-01T18:37:24.802Z,53.97
2022-12-01T18:39:52.614Z,53.46
2022-12-01T18:42:20.307Z,53.47
2022-12-01T18:44:48.823Z,54.07
2022-12-01T18:47:17.132Z,53.83
2022-12-01T18:49:46.628Z,53.97
2022-12-01T18:52:14.264Z,54.17
2022-12-01T18:54:42.945Z,54.60
2022-12-01T18:57:11.798Z,54.33
2022-12-01T18:59:39.607Z,54.77
2022-12-01T19:02:07.530Z,54.14
2022-12-01T19:04:35.269Z,54.24
2022-12-01T19:07:04.317Z,53.21
2022-12-01T19:09:32.003Z,53.93
2022-12-01T19:12:00.636Z,53.89
2022-12-01T19:14:28.999Z,54.08
2022-12-01T19:16:56.837Z,53.60
2022-12-01T19:19:24.503Z,54.66
2022-12-01T19:21:53.103Z,54.11
2022-12-01T19:24:23.433Z,53.81
2022-12-01T19:26:51.027Z,54.58
2022-12-01T19:29:18.876Z,53.30
2022-12-01T19:31:46.666Z,54.54
2022-12-01T19:34:14.355Z,53.96
2022-12-01T19:36:42.156Z,53.41
2022-12-01T19:39:10.133Z,54.48
2022-12-01T19:41:39.533Z,54.02
2022-12-01T19:44:07.249Z,54.23
2022-12-01T19:46:34.888Z,53.99
2022-12-01T19:49:04.882Z,54.46
2022-12-01T19:51:34.868Z,54.17
2022-12-01T19:54:03.303Z,53.99
2022-12-01T19:56:31.437Z,54.27
2022-12-01T19:59:00.590Z,53.47
2022-12-01T20:01:28.503Z,53.61
2022-12-01T20:03:56.483Z,54.06
2022-12-01T20:06:25.123Z,53.78
2022-12-01T20:08:52.956Z,54.06
2022-12-01T20:11:20.645Z,53.49
2022-12-01T20:13:48.419Z,53.72
2022-12-01T20:16:18.460Z,53.82
2022-12-01T20:18:46.418Z,53.92
2022-12-01T20:21:17.115Z,54.37
2022-12-01T20:23:44.956Z,54.22
2022-12-01T20:26:12.550Z,54.19
2022-12-01T20:28:40.455Z,53.63
2022-12-01T20:31:10.164Z,53.86
2022-12-01T20:33:39.201Z,53.59
2022-12-01T20:36:07.085Z,53.99
2022-12-01T20:38:34.816Z,53.72
2022-12-01T20:41:02.456Z,54.27
2022-12-01T20:43:30.081Z,53.77
2022-12-01T20:45:57.767Z,53.57
2022-12-01T20:48:25.968Z,54.24
2022-12-01T20:50:55.026Z,54.28
2022-12-01T20:53:22.709Z,54.57
2022-12-01T20:55:50.340Z,54.34
2022-12-01T20:58:17.979Z,54.01
2022-12-01T21:00:45.728Z,54.62
2022-12-01T21:03:13.516Z,54.41
2022-12-01T21:05:41.233Z,53.69
2022-12-01T21:08:11.558Z,53.59
2022-12-01T21:10:39.341Z,53.68
2022-12-01T21:13:34.116Z,54.02
2022-12-01T21:16:05.830Z,54.19
2022-12-01T21:18:40.136Z,53.71
2022-12-01T21:21:16.278Z,54.10
2022-12-01T21:23:45.237Z,54.53
2022-12-01T21:26:14.315Z,54.32
2022-12-01T21:28:42.997Z,54.21
2022-12-01T21:31:12.801Z,53.81
2022-12-01T21:33:40.723Z,54.00
2022-12-01T21:36:13.330Z,54.19
2022-12-01T21:38:41.721Z,54.91
2022-12-01T21:41:15.495Z,54.13
2022-12-01T21:43:43.121Z,54.24
2022-12-01T21:46:14.173Z,54.35
2022-12-01T21:48:41.877Z,54.36
2022-12-01T21:51:13.712Z,54.03
2022-12-01T21:53:41.340Z,54.31
2022-12-01T21:56:13.187Z,54.57
2022-12-01T21:58:40.877Z,54.93
2022-12-01T22:01:16.185Z,54.52
2022-12-01T22:03:44.960Z,55.00
2022-12-01T22:06:29.772Z,54.18
2022-12-01T22:08:59.785Z,54.92
2022-12-01T22:11:30.515Z,54.88
2022-12-01T22:14:02.001Z,54.80
2022-12-01T22:16:30.529Z,54.71
2022-12-01T22:18:58.727Z,54.85
2022-12-01T22:21:32.968Z,54.13
2022-12-01T22:24:22.803Z,54.07
2022-12-01T22:26:53.933Z,54.42
2022-12-01T22:29:31.407Z,54.62
2022-12-01T22:32:19.772Z,54.72
2022-12-01T22:34:51.656Z,54.83
2022-12-01T22:37:22.113Z,54.45
2022-12-01T22:39:50.920Z,54.08
2022-12-01T22:42:21.786Z,54.57
2022-12-01T22:44:49.708Z,53.89
2022-12-01T22:47:17.475Z,54.09
2022-12-01T22:49:45.132Z,54.04
2022-12-01T22:52:16.635Z,54.08
2022-12-01T22:54:44.653Z,54.48
2022-12-01T22:57:32.887Z,54.58
2022-12-01T23:00:03.465Z,54.81
2022-12-01T23:02:33.777Z,54.11
2022-12-01T23:05:02.257Z,54.72
2022-12-01T23:07:31.864Z,54.88
2022-12-01T23:10:03.700Z,54.24
2022-12-01T23:12:33.160Z,54.61
2022-12-01T23:15:01.703Z,54.20
2022-12-01T23:17:32.088Z,54.50
2022-12-01T23:20:18.360Z,54.25
2022-12-01T23:22:46.094Z,54.63
2022-12-01T23:25:15.511Z,55.10
2022-12-01T23:30:13.696Z,54.88
2022-12-01T23:32:41.369Z,55.15
2022-12-01T23:35:11.671Z,55.11
2022-12-01T23:37:40.201Z,55.05
2022-12-01T23:40:16.057Z,54.93
2022-12-01T23:42:43.677Z,55.07
2022-12-01T23:45:15.613Z,55.14
2022-12-01T23:47:43.215Z,54.83
2022-12-01T23:50:20.032Z,54.64
2022-12-01T23:52:47.802Z,54.73
2022-12-01T23:55:18.914Z,54.67
2022-12-01T23:57:46.506Z,54.59
